sensor_id;sensor_type;location;lat;lon;timestamp;pressure;altitude;pressure_sealevel;temperature;humidity
27805;BME280;15183;51.350;11.102;2023-05-28T00:01:32;100582.50;;;14.61;45.54
27805;BME280;15183;51.350;11.102;2023-05-28T00:03:58;100581.34;;;14.57;45.50
27805;BME280;15183;51.350;11.102;2023-05-28T00:06:25;100583.06;;;14.52;45.53
27805;BME280;15183;51.350;11.102;2023-05-28T00:08:51;100585.41;;;14.48;45.48
27805;BME280;15183;51.350;11.102;2023-05-28T00:11:17;100579.16;;;14.42;46.05
27805;BME280;15183;51.350;11.102;2023-05-28T00:13:44;100570.00;;;14.38;45.96
27805;BME280;15183;51.350;11.102;2023-05-28T00:16:10;100566.63;;;14.31;46.15
27805;BME280;15183;51.350;11.102;2023-05-28T00:18:39;100568.59;;;14.36;45.87
27805;BME280;15183;51.350;11.102;2023-05-28T00:21:05;100571.72;;;14.32;46.24
27805;BME280;15183;51.350;11.102;2023-05-28T00:23:31;100563.28;;;14.24;45.63
27805;BME280;15183;51.350;11.102;2023-05-28T00:25:58;100565.72;;;14.25;45.92
27805;BME280;15183;51.350;11.102;2023-05-28T00:28:24;100555.28;;;14.24;46.10
27805;BME280;15183;51.350;11.102;2023-05-28T00:30:51;100562.47;;;14.35;45.52
27805;BME280;15183;51.350;11.102;2023-05-28T00:33:17;100566.88;;;14.41;46.08
27805;BME280;15183;51.350;11.102;2023-05-28T00:35:44;100544.59;;;14.36;45.60
27805;BME280;15183;51.350;11.102;2023-05-28T00:38:10;100554.94;;;14.44;45.94
27805;BME280;15183;51.350;11.102;2023-05-28T00:40:36;100551.31;;;14.50;45.66
27805;BME280;15183;51.350;11.102;2023-05-28T00:43:03;100549.81;;;14.54;45.75
27805;BME280;15183;51.350;11.102;2023-05-28T00:45:29;100558.84;;;14.65;45.07
27805;BME280;15183;51.350;11.102;2023-05-28T00:47:56;100549.91;;;14.59;45.62
27805;BME280;15183;51.350;11.102;2023-05-28T00:50:23;100569.25;;;14.67;45.20
27805;BME280;15183;51.350;11.102;2023-05-28T00:52:51;100556.06;;;14.60;45.21
27805;BME280;15183;51.350;11.102;2023-05-28T00:55:19;100557.44;;;14.62;45.80
27805;BME280;15183;51.350;11.102;2023-05-28T00:57:47;100566.50;;;14.61;45.35
27805;BME280;15183;51.350;11.102;2023-05-28T01:00:15;100544.47;;;14.54;45.35
27805;BME280;15183;51.350;11.102;2023-05-28T01:02:42;100536.59;;;14.47;45.85
27805;BME280;15183;51.350;11.102;2023-05-28T01:05:09;100537.06;;;14.44;45.21
27805;BME280;15183;51.350;11.102;2023-05-28T01:07:36;100533.16;;;14.35;45.72
27805;BME280;15183;51.350;11.102;2023-05-28T01:10:04;100549.94;;;14.36;45.68
27805;BME280;15183;51.350;11.102;2023-05-28T01:12:31;100557.34;;;14.33;45.99
27805;BME280;15183;51.350;11.102;2023-05-28T01:14:58;100542.88;;;14.29;45.43
27805;BME280;15183;51.350;11.102;2023-05-28T01:17:24;100526.66;;;14.19;45.42
27805;BME280;15183;51.350;11.102;2023-05-28T01:19:51;100536.28;;;14.20;45.71
27805;BME280;15183;51.350;11.102;2023-05-28T01:22:18;100544.75;;;14.17;45.83
27805;BME280;15183;51.350;11.102;2023-05-28T01:24:49;100537.31;;;14.07;46.12
27805;BME280;15183;51.350;11.102;2023-05-28T01:27:17;100533.84;;;14.07;46.07
27805;BME280;15183;51.350;11.102;2023-05-28T01:29:45;100546.81;;;14.15;45.85
27805;BME280;15183;51.350;11.102;2023-05-28T01:32:11;100541.97;;;14.12;45.71
27805;BME280;15183;51.350;11.102;2023-05-28T01:34:37;100524.81;;;13.96;46.05
27805;BME280;15183;51.350;11.102;2023-05-28T01:37:08;100540.44;;;14.04;46.10
27805;BME280;15183;51.350;11.102;2023-05-28T01:39:42;100554.25;;;14.13;45.89
27805;BME280;15183;51.350;11.102;2023-05-28T01:42:10;100545.88;;;14.21;45.68
27805;BME280;15183;51.350;11.102;2023-05-28T01:44:39;100538.38;;;14.18;46.09
27805;BME280;15183;51.350;11.102;2023-05-28T01:47:07;100544.97;;;14.27;46.01
27805;BME280;15183;51.350;11.102;2023-05-28T01:49:37;100531.63;;;14.27;45.46
27805;BME280;15183;51.350;11.102;2023-05-28T01:52:04;100527.25;;;14.21;45.57
27805;BME280;15183;51.350;11.102;2023-05-28T01:54:33;100531.53;;;14.22;45.46
27805;BME280;15183;51.350;11.102;2023-05-28T01:56:59;100519.59;;;14.13;45.53
27805;BME280;15183;51.350;11.102;2023-05-28T01:59:27;100533.97;;;14.12;45.43
27805;BME280;15183;51.350;11.102;2023-05-28T02:01:53;100509.03;;;13.94;45.73
27805;BME280;15183;51.350;11.102;2023-05-28T02:04:20;100519.56;;;13.89;46.20
27805;BME280;15183;51.350;11.102;2023-05-28T02:06:46;100532.09;;;13.88;46.17
27805;BME280;15183;51.350;11.102;2023-05-28T02:09:13;100521.34;;;13.83;46.06
27805;BME280;15183;51.350;11.102;2023-05-28T02:11:39;100522.59;;;13.81;46.16
27805;BME280;15183;51.350;11.102;2023-05-28T02:14:05;100524.78;;;13.84;46.00
27805;BME280;15183;51.350;11.102;2023-05-28T02:16:32;100514.22;;;13.77;46.61
27805;BME280;15183;51.350;11.102;2023-05-28T02:18:59;100521.53;;;13.82;46.49
27805;BME280;15183;51.350;11.102;2023-05-28T02:21:25;100510.06;;;13.69;45.86
27805;BME280;15183;51.350;11.102;2023-05-28T02:23:52;100521.97;;;13.67;46.31
27805;BME280;15183;51.350;11.102;2023-05-28T02:26:19;100508.00;;;13.41;46.23
27805;BME280;15183;51.350;11.102;2023-05-28T02:28:46;100519.25;;;13.43;46.56
27805;BME280;15183;51.350;11.102;2023-05-28T02:31:13;100529.47;;;13.46;46.64
27805;BME280;15183;51.350;11.102;2023-05-28T02:33:41;100506.97;;;13.42;46.75
27805;BME280;15183;51.350;11.102;2023-05-28T02:36:09;100515.13;;;13.47;46.44
27805;BME280;15183;51.350;11.102;2023-05-28T02:38:38;100525.06;;;13.52;46.30
27805;BME280;15183;51.350;11.102;2023-05-28T02:41:05;100511.63;;;13.46;46.57
27805;BME280;15183;51.350;11.102;2023-05-28T02:43:31;100523.91;;;13.48;46.11
27805;BME280;15183;51.350;11.102;2023-05-28T02:45:58;100514.16;;;13.41;46.46
27805;BME280;15183;51.350;11.102;2023-05-28T02:48:25;100505.78;;;13.38;46.43
27805;BME280;15183;51.350;11.102;2023-05-28T02:50:51;100514.94;;;13.42;46.43
27805;BME280;15183;51.350;11.102;2023-05-28T02:53:22;100519.69;;;13.40;46.87
27805;BME280;15183;51.350;11.102;2023-05-28T02:55:49;100510.84;;;13.27;46.68
27805;BME280;15183;51.350;11.102;2023-05-28T02:58:16;100526.75;;;13.34;46.61
27805;BME280;15183;51.350;11.102;2023-05-28T03:00:42;100519.94;;;13.38;46.94
27805;BME280;15183;51.350;11.102;2023-05-28T03:03:09;100525.69;;;13.35;46.43
27805;BME280;15183;51.350;11.102;2023-05-28T03:05:36;100534.44;;;13.42;46.09
27805;BME280;15183;51.350;11.102;2023-05-28T03:08:02;100530.28;;;13.46;46.56
27805;BME280;15183;51.350;11.102;2023-05-28T03:10:29;100533.31;;;13.50;46.64
27805;BME280;15183;51.350;11.102;2023-05-28T03:12:56;100532.47;;;13.50;46.39
27805;BME280;15183;51.350;11.102;2023-05-28T03:15:22;100535.72;;;13.52;46.08
27805;BME280;15183;51.350;11.102;2023-05-28T03:17:53;100534.69;;;13.53;46.47
27805;BME280;15183;51.350;11.102;2023-05-28T03:20:20;100529.22;;;13.48;46.50
27805;BME280;15183;51.350;11.102;2023-05-28T03:22:48;100527.53;;;13.53;46.45
27805;BME280;15183;51.350;11.102;2023-05-28T03:25:15;100520.66;;;13.45;46.33
27805;BME280;15183;51.350;11.102;2023-05-28T03:27:41;100534.22;;;13.56;45.85
27805;BME280;15183;51.350;11.102;2023-05-28T03:30:08;100531.84;;;13.66;46.14
27805;BME280;15183;51.350;11.102;2023-05-28T03:32:36;100535.19;;;13.73;46.02
27805;BME280;15183;51.350;11.102;2023-05-28T03:35:02;100542.19;;;13.86;46.62
27805;BME280;15183;51.350;11.102;2023-05-28T03:37:29;100542.16;;;13.98;46.06
27805;BME280;15183;51.350;11.102;2023-05-28T03:39:55;100542.06;;;14.17;46.50
27805;BME280;15183;51.350;11.102;2023-05-28T03:42:22;100544.59;;;14.36;45.97
27805;BME280;15183;51.350;11.102;2023-05-28T03:44:48;100545.16;;;14.50;45.64
27805;BME280;15183;51.350;11.102;2023-05-28T03:47:14;100552.00;;;14.69;45.81
27805;BME280;15183;51.350;11.102;2023-05-28T03:49:41;100545.63;;;14.82;45.50
27805;BME280;15183;51.350;11.102;2023-05-28T03:52:09;100537.56;;;14.94;45.37
27805;BME280;15183;51.350;11.102;2023-05-28T03:54:35;100525.63;;;14.97;45.38
27805;BME280;15183;51.350;11.102;2023-05-28T03:57:02;100529.13;;;15.14;45.67
27805;BME280;15183;51.350;11.102;2023-05-28T03:59:28;100530.47;;;15.29;45.76
27805;BME280;15183;51.350;11.102;2023-05-28T04:01:55;100531.69;;;15.38;45.51
27805;BME280;15183;51.350;11.102;2023-05-28T04:04:21;100519.56;;;15.47;45.72
27805;BME280;15183;51.350;11.102;2023-05-28T04:06:48;100512.03;;;15.44;45.44
27805;BME280;15183;51.350;11.102;2023-05-28T04:09:15;100525.00;;;15.53;45.72
27805;BME280;15183;51.350;11.102;2023-05-28T04:11:41;100522.50;;;15.63;45.96
27805;BME280;15183;51.350;11.102;2023-05-28T04:14:08;100524.28;;;15.74;45.72
27805;BME280;15183;51.350;11.102;2023-05-28T04:16:35;100522.34;;;15.87;45.83
27805;BME280;15183;51.350;11.102;2023-05-28T04:19:01;100533.03;;;16.04;44.92
27805;BME280;15183;51.350;11.102;2023-05-28T04:21:29;100539.50;;;16.08;44.94
27805;BME280;15183;51.350;11.102;2023-05-28T04:23:55;100531.25;;;16.10;45.16
27805;BME280;15183;51.350;11.102;2023-05-28T04:26:21;100549.88;;;16.22;45.44
27805;BME280;15183;51.350;11.102;2023-05-28T04:28:49;100548.91;;;16.28;45.71
27805;BME280;15183;51.350;11.102;2023-05-28T04:31:16;100544.56;;;16.44;45.25
27805;BME280;15183;51.350;11.102;2023-05-28T04:33:43;100532.88;;;16.50;45.41
27805;BME280;15183;51.350;11.102;2023-05-28T04:36:12;100545.25;;;16.56;44.75
27805;BME280;15183;51.350;11.102;2023-05-28T04:38:41;100548.94;;;16.50;45.55
27805;BME280;15183;51.350;11.102;2023-05-28T04:41:08;100538.16;;;16.45;45.46
27805;BME280;15183;51.350;11.102;2023-05-28T04:43:35;100533.94;;;16.49;45.27
27805;BME280;15183;51.350;11.102;2023-05-28T04:46:02;100543.53;;;16.67;45.17
27805;BME280;15183;51.350;11.102;2023-05-28T04:48:30;100537.06;;;16.85;45.14
27805;BME280;15183;51.350;11.102;2023-05-28T04:50:58;100538.13;;;17.06;45.22
27805;BME280;15183;51.350;11.102;2023-05-28T04:53:24;100540.56;;;17.35;44.82
27805;BME280;15183;51.350;11.102;2023-05-28T04:55:51;100530.91;;;17.67;44.79
27805;BME280;15183;51.350;11.102;2023-05-28T04:58:18;100545.44;;;18.04;44.39
27805;BME280;15183;51.350;11.102;2023-05-28T05:00:44;100546.13;;;18.32;45.01
27805;BME280;15183;51.350;11.102;2023-05-28T05:03:10;100539.81;;;18.59;44.13
27805;BME280;15183;51.350;11.102;2023-05-28T05:05:37;100546.09;;;18.90;44.34
27805;BME280;15183;51.350;11.102;2023-05-28T05:08:05;100542.97;;;19.09;44.32
27805;BME280;15183;51.350;11.102;2023-05-28T05:10:32;100546.75;;;19.29;44.10
27805;BME280;15183;51.350;11.102;2023-05-28T05:12:58;100544.91;;;19.45;43.77
27805;BME280;15183;51.350;11.102;2023-05-28T05:15:26;100540.88;;;19.68;43.11
27805;BME280;15183;51.350;11.102;2023-05-28T05:17:53;100535.53;;;19.94;42.83
27805;BME280;15183;51.350;11.102;2023-05-28T05:20:19;100539.25;;;20.03;43.02
27805;BME280;15183;51.350;11.102;2023-05-28T05:22:46;100540.34;;;20.07;42.40
27805;BME280;15183;51.350;11.102;2023-05-28T05:25:12;100534.94;;;20.18;42.61
27805;BME280;15183;51.350;11.102;2023-05-28T05:27:40;100525.50;;;20.31;42.55
27805;BME280;15183;51.350;11.102;2023-05-28T05:30:07;100523.00;;;20.50;42.59
27805;BME280;15183;51.350;11.102;2023-05-28T05:32:34;100521.28;;;20.70;42.08
27805;BME280;15183;51.350;11.102;2023-05-28T05:35:00;100513.69;;;20.92;42.55
27805;BME280;15183;51.350;11.102;2023-05-28T05:37:28;100508.22;;;21.03;42.08
27805;BME280;15183;51.350;11.102;2023-05-28T05:39:54;100516.59;;;21.41;41.38
27805;BME280;15183;51.350;11.102;2023-05-28T05:42:21;100516.81;;;21.79;41.32
27805;BME280;15183;51.350;11.102;2023-05-28T05:44:47;100525.25;;;22.02;41.46
27805;BME280;15183;51.350;11.102;2023-05-28T05:47:14;100525.47;;;22.30;41.21
27805;BME280;15183;51.350;11.102;2023-05-28T05:49:40;100520.38;;;22.53;40.60
27805;BME280;15183;51.350;11.102;2023-05-28T05:52:07;100529.38;;;22.67;40.64
27805;BME280;15183;51.350;11.102;2023-05-28T05:54:33;100529.19;;;22.83;40.22
27805;BME280;15183;51.350;11.102;2023-05-28T05:57:00;100523.78;;;23.02;40.03
27805;BME280;15183;51.350;11.102;2023-05-28T05:59:29;100524.06;;;23.20;40.09
27805;BME280;15183;51.350;11.102;2023-05-28T06:01:55;100510.97;;;23.08;39.94
27805;BME280;15183;51.350;11.102;2023-05-28T06:04:21;100519.59;;;23.10;40.12
27805;BME280;15183;51.350;11.102;2023-05-28T06:06:48;100508.06;;;23.04;39.47
27805;BME280;15183;51.350;11.102;2023-05-28T06:09:14;100503.53;;;22.99;39.76
27805;BME280;15183;51.350;11.102;2023-05-28T06:11:41;100517.28;;;23.22;39.58
27805;BME280;15183;51.350;11.102;2023-05-28T06:14:07;100515.75;;;23.35;39.46
27805;BME280;15183;51.350;11.102;2023-05-28T06:16:33;100522.19;;;23.39;39.31
27805;BME280;15183;51.350;11.102;2023-05-28T06:19:00;100523.19;;;23.44;39.14
27805;BME280;15183;51.350;11.102;2023-05-28T06:21:26;100517.72;;;23.63;39.07
27805;BME280;15183;51.350;11.102;2023-05-28T06:23:53;100519.56;;;23.81;39.47
27805;BME280;15183;51.350;11.102;2023-05-28T06:26:19;100519.59;;;23.95;39.32
27805;BME280;15183;51.350;11.102;2023-05-28T06:28:46;100511.91;;;24.03;38.40
27805;BME280;15183;51.350;11.102;2023-05-28T06:31:13;100511.63;;;24.18;38.52
27805;BME280;15183;51.350;11.102;2023-05-28T06:33:39;100510.28;;;24.43;38.54
27805;BME280;15183;51.350;11.102;2023-05-28T06:36:06;100509.94;;;24.73;38.49
27805;BME280;15183;51.350;11.102;2023-05-28T06:38:33;100506.19;;;24.97;37.76
27805;BME280;15183;51.350;11.102;2023-05-28T06:40:59;100503.81;;;25.18;38.15
27805;BME280;15183;51.350;11.102;2023-05-28T06:43:26;100498.38;;;25.41;37.71
27805;BME280;15183;51.350;11.102;2023-05-28T06:45:52;100504.03;;;25.76;37.12
27805;BME280;15183;51.350;11.102;2023-05-28T06:48:18;100487.69;;;26.08;36.99
27805;BME280;15183;51.350;11.102;2023-05-28T06:50:45;100495.47;;;26.50;35.91
27805;BME280;15183;51.350;11.102;2023-05-28T06:53:11;100499.69;;;26.82;35.50
27805;BME280;15183;51.350;11.102;2023-05-28T06:55:38;100500.19;;;27.11;35.32
27805;BME280;15183;51.350;11.102;2023-05-28T06:58:04;100495.16;;;27.39;34.84
27805;BME280;15183;51.350;11.102;2023-05-28T07:00:30;100498.97;;;27.65;34.53
27805;BME280;15183;51.350;11.102;2023-05-28T07:02:57;100503.81;;;27.98;33.53
27805;BME280;15183;51.350;11.102;2023-05-28T07:05:23;100510.91;;;28.29;33.51
27805;BME280;15183;51.350;11.102;2023-05-28T07:07:50;100511.53;;;28.56;33.04
27805;BME280;15183;51.350;11.102;2023-05-28T07:10:16;100502.91;;;28.75;32.59
27805;BME280;15183;51.350;11.102;2023-05-28T07:12:43;100503.06;;;29.00;32.22
27805;BME280;15183;51.350;11.102;2023-05-28T07:15:10;100490.59;;;29.11;32.37
27805;BME280;15183;51.350;11.102;2023-05-28T07:17:36;100509.91;;;29.40;31.65
27805;BME280;15183;51.350;11.102;2023-05-28T07:20:03;100504.16;;;29.54;31.36
27805;BME280;15183;51.350;11.102;2023-05-28T07:22:31;100496.31;;;29.65;31.12
27805;BME280;15183;51.350;11.102;2023-05-28T07:24:58;100504.88;;;29.88;30.89
27805;BME280;15183;51.350;11.102;2023-05-28T07:27:24;100495.75;;;29.96;30.80
27805;BME280;15183;51.350;11.102;2023-05-28T07:29:51;100498.06;;;30.07;30.54
27805;BME280;15183;51.350;11.102;2023-05-28T07:32:17;100503.38;;;30.28;30.22
27805;BME280;15183;51.350;11.102;2023-05-28T07:34:43;100499.97;;;30.43;30.08
27805;BME280;15183;51.350;11.102;2023-05-28T07:37:10;100502.47;;;30.49;29.94
27805;BME280;15183;51.350;11.102;2023-05-28T07:39:36;100503.13;;;30.58;29.90
27805;BME280;15183;51.350;11.102;2023-05-28T07:42:03;100503.47;;;30.56;29.66
27805;BME280;15183;51.350;11.102;2023-05-28T07:44:29;100507.66;;;30.66;29.89
27805;BME280;15183;51.350;11.102;2023-05-28T07:46:55;100508.59;;;30.70;29.68
27805;BME280;15183;51.350;11.102;2023-05-28T07:49:22;100499.91;;;30.68;29.55
27805;BME280;15183;51.350;11.102;2023-05-28T07:51:49;100502.97;;;30.79;29.25
27805;BME280;15183;51.350;11.102;2023-05-28T07:54:15;100513.66;;;30.84;29.33
27805;BME280;15183;51.350;11.102;2023-05-28T07:56:41;100513.06;;;30.91;29.56
27805;BME280;15183;51.350;11.102;2023-05-28T07:59:08;100515.22;;;30.98;29.47
27805;BME280;15183;51.350;11.102;2023-05-28T08:01:35;100513.13;;;31.07;29.43
27805;BME280;15183;51.350;11.102;2023-05-28T08:04:01;100511.84;;;31.17;28.61
27805;BME280;15183;51.350;11.102;2023-05-28T08:06:28;100510.09;;;31.25;28.76
27805;BME280;15183;51.350;11.102;2023-05-28T08:08:54;100509.50;;;31.31;28.75
27805;BME280;15183;51.350;11.102;2023-05-28T08:11:21;100507.81;;;31.43;28.06
27805;BME280;15183;51.350;11.102;2023-05-28T08:13:47;100507.94;;;31.46;27.96
27805;BME280;15183;51.350;11.102;2023-05-28T08:16:14;100495.13;;;31.51;28.06
27805;BME280;15183;51.350;11.102;2023-05-28T08:18:41;100507.94;;;31.62;28.21
27805;BME280;15183;51.350;11.102;2023-05-28T08:21:07;100505.31;;;31.66;27.64
27805;BME280;15183;51.350;11.102;2023-05-28T08:23:34;100493.25;;;31.71;27.75
27805;BME280;15183;51.350;11.102;2023-05-28T08:26:02;100504.97;;;31.84;27.19
27805;BME280;15183;51.350;11.102;2023-05-28T08:28:29;100506.44;;;31.81;27.39
27805;BME280;15183;51.350;11.102;2023-05-28T08:30:56;100504.63;;;31.85;26.99
27805;BME280;15183;51.350;11.102;2023-05-28T08:33:23;100499.13;;;31.85;27.38
27805;BME280;15183;51.350;11.102;2023-05-28T08:35:50;100508.13;;;32.02;26.81
27805;BME280;15183;51.350;11.102;2023-05-28T08:38:16;100502.47;;;32.11;26.61
27805;BME280;15183;51.350;11.102;2023-05-28T08:40:51;100489.63;;;32.15;26.45
27805;BME280;15183;51.350;11.102;2023-05-28T08:43:19;100494.47;;;32.22;26.43
27805;BME280;15183;51.350;11.102;2023-05-28T08:45:46;100495.41;;;32.29;25.81
27805;BME280;15183;51.350;11.102;2023-05-28T08:48:14;100489.50;;;32.27;26.01
27805;BME280;15183;51.350;11.102;2023-05-28T08:50:46;100481.34;;;32.31;26.25
27805;BME280;15183;51.350;11.102;2023-05-28T08:53:18;100480.81;;;32.41;26.09
27805;BME280;15183;51.350;11.102;2023-05-28T08:55:45;100481.81;;;32.53;25.57
27805;BME280;15183;51.350;11.102;2023-05-28T08:58:13;100479.69;;;32.62;25.17
27805;BME280;15183;51.350;11.102;2023-05-28T09:00:40;100463.66;;;32.64;25.24
27805;BME280;15183;51.350;11.102;2023-05-28T09:03:07;100462.84;;;32.63;24.69
27805;BME280;15183;51.350;11.102;2023-05-28T09:05:37;100463.66;;;32.64;24.66
27805;BME280;15183;51.350;11.102;2023-05-28T09:08:12;100455.09;;;32.50;24.31
27805;BME280;15183;51.350;11.102;2023-05-28T09:10:40;100463.78;;;32.52;23.23
27805;BME280;15183;51.350;11.102;2023-05-28T09:13:07;100462.41;;;32.42;23.06
27805;BME280;15183;51.350;11.102;2023-05-28T09:15:34;100454.94;;;32.23;21.99
27805;BME280;15183;51.350;11.102;2023-05-28T09:18:04;100451.47;;;31.90;22.31
27805;BME280;15183;51.350;11.102;2023-05-28T09:20:31;100459.19;;;31.84;23.35
27805;BME280;15183;51.350;11.102;2023-05-28T09:23:04;100445.91;;;31.70;23.46
27805;BME280;15183;51.350;11.102;2023-05-28T09:25:36;100450.94;;;31.68;22.94
27805;BME280;15183;51.350;11.102;2023-05-28T09:28:03;100439.78;;;31.61;22.33
27805;BME280;15183;51.350;11.102;2023-05-28T09:30:34;100437.25;;;31.52;22.53
27805;BME280;15183;51.350;11.102;2023-05-28T09:33:03;100439.34;;;31.43;22.17
27805;BME280;15183;51.350;11.102;2023-05-28T09:35:33;100417.59;;;31.18;23.08
27805;BME280;15183;51.350;11.102;2023-05-28T09:38:07;100442.88;;;31.27;23.39
27805;BME280;15183;51.350;11.102;2023-05-28T09:40:41;100436.09;;;31.21;23.62
27805;BME280;15183;51.350;11.102;2023-05-28T09:43:09;100441.19;;;31.23;23.33
27805;BME280;15183;51.350;11.102;2023-05-28T09:45:37;100426.63;;;31.18;22.93
27805;BME280;15183;51.350;11.102;2023-05-28T09:48:03;100422.09;;;31.10;22.59
27805;BME280;15183;51.350;11.102;2023-05-28T09:50:30;100423.56;;;30.92;22.67
27805;BME280;15183;51.350;11.102;2023-05-28T09:52:58;100412.03;;;30.70;23.27
27805;BME280;15183;51.350;11.102;2023-05-28T09:55:28;100414.91;;;30.61;22.93
27805;BME280;15183;51.350;11.102;2023-05-28T09:58:05;100421.88;;;30.58;23.47
27805;BME280;15183;51.350;11.102;2023-05-28T10:00:34;100426.53;;;30.58;23.48
27805;BME280;15183;51.350;11.102;2023-05-28T10:03:24;100410.16;;;30.45;23.71
27805;BME280;15183;51.350;11.102;2023-05-28T10:05:56;100424.59;;;30.58;23.33
27805;BME280;15183;51.350;11.102;2023-05-28T10:08:26;100403.75;;;30.54;23.07
27805;BME280;15183;51.350;11.102;2023-05-28T10:10:54;100421.38;;;30.69;23.56
27805;BME280;15183;51.350;11.102;2023-05-28T10:13:22;100429.72;;;30.72;23.36
27805;BME280;15183;51.350;11.102;2023-05-28T10:15:49;100421.06;;;30.70;22.93
27805;BME280;15183;51.350;11.102;2023-05-28T10:18:16;100424.22;;;30.72;23.90
27805;BME280;15183;51.350;11.102;2023-05-28T10:20:44;100414.97;;;30.77;23.31
27805;BME280;15183;51.350;11.102;2023-05-28T10:23:10;100409.59;;;30.81;23.45
27805;BME280;15183;51.350;11.102;2023-05-28T10:25:37;100418.88;;;30.92;22.79
27805;BME280;15183;51.350;11.102;2023-05-28T10:28:04;100416.94;;;30.93;23.13
27805;BME280;15183;51.350;11.102;2023-05-28T10:30:36;100411.25;;;30.85;23.15
27805;BME280;15183;51.350;11.102;2023-05-28T10:33:16;100402.97;;;30.82;23.32
27805;BME280;15183;51.350;11.102;2023-05-28T10:36:16;100391.84;;;30.74;23.10
27805;BME280;15183;51.350;11.102;2023-05-28T10:39:03;100407.38;;;30.86;22.92
27805;BME280;15183;51.350;11.102;2023-05-28T10:41:33;100408.31;;;30.90;23.22
27805;BME280;15183;51.350;11.102;2023-05-28T10:44:06;100399.47;;;30.97;22.27
27805;BME280;15183;51.350;11.102;2023-05-28T10:46:40;100398.50;;;31.05;23.04
27805;BME280;15183;51.350;11.102;2023-05-28T10:49:12;100389.34;;;31.14;22.56
27805;BME280;15183;51.350;11.102;2023-05-28T10:52:20;100406.31;;;31.19;22.82
27805;BME280;15183;51.350;11.102;2023-05-28T10:54:52;100404.63;;;31.15;21.52
27805;BME280;15183;51.350;11.102;2023-05-28T10:57:20;100397.81;;;31.09;22.28
27805;BME280;15183;51.350;11.102;2023-05-28T11:02:27;100407.06;;;31.04;21.98
27805;BME280;15183;51.350;11.102;2023-05-28T11:05:00;100403.72;;;30.95;21.91
27805;BME280;15183;51.350;11.102;2023-05-28T11:07:37;100399.19;;;30.86;22.01
27805;BME280;15183;51.350;11.102;2023-05-28T11:10:07;100397.94;;;30.84;21.94
27805;BME280;15183;51.350;11.102;2023-05-28T11:12:41;100406.16;;;30.84;22.17
27805;BME280;15183;51.350;11.102;2023-05-28T11:15:10;100390.69;;;30.75;21.88
27805;BME280;15183;51.350;11.102;2023-05-28T11:17:38;100396.63;;;30.78;21.33
27805;BME280;15183;51.350;11.102;2023-05-28T11:20:14;100399.06;;;30.67;22.06
27805;BME280;15183;51.350;11.102;2023-05-28T11:22:40;100395.28;;;30.59;21.39
27805;BME280;15183;51.350;11.102;2023-05-28T11:25:09;100396.50;;;30.45;21.65
27805;BME280;15183;51.350;11.102;2023-05-28T11:27:36;100390.38;;;30.36;22.11
27805;BME280;15183;51.350;11.102;2023-05-28T11:30:10;100398.28;;;30.25;21.96
27805;BME280;15183;51.350;11.102;2023-05-28T11:32:38;100383.59;;;30.17;22.34
27805;BME280;15183;51.350;11.102;2023-05-28T11:35:04;100383.34;;;30.23;22.43
27805;BME280;15183;51.350;11.102;2023-05-28T11:37:33;100364.22;;;30.23;22.80
27805;BME280;15183;51.350;11.102;2023-05-28T11:40:05;100381.44;;;30.52;22.70
27805;BME280;15183;51.350;11.102;2023-05-28T11:42:32;100379.91;;;30.67;22.19
27805;BME280;15183;51.350;11.102;2023-05-28T11:44:59;100388.31;;;30.74;21.84
27805;BME280;15183;51.350;11.102;2023-05-28T11:47:25;100386.63;;;30.69;22.29
27805;BME280;15183;51.350;11.102;2023-05-28T11:49:52;100381.63;;;30.59;21.89
27805;BME280;15183;51.350;11.102;2023-05-28T11:52:23;100384.28;;;30.55;22.04
27805;BME280;15183;51.350;11.102;2023-05-28T11:54:58;100384.84;;;30.49;22.13
27805;BME280;15183;51.350;11.102;2023-05-28T11:57:26;100371.88;;;30.45;22.25
27805;BME280;15183;51.350;11.102;2023-05-28T11:59:59;100367.91;;;30.43;22.22
27805;BME280;15183;51.350;11.102;2023-05-28T12:02:26;100381.22;;;30.44;22.63
27805;BME280;15183;51.350;11.102;2023-05-28T12:05:01;100369.22;;;30.33;22.62
27805;BME280;15183;51.350;11.102;2023-05-28T12:07:33;100358.34;;;30.37;22.59
27805;BME280;15183;51.350;11.102;2023-05-28T12:10:12;100356.31;;;30.33;21.98
27805;BME280;15183;51.350;11.102;2023-05-28T12:12:44;100368.44;;;30.49;22.23
27805;BME280;15183;51.350;11.102;2023-05-28T12:15:12;100369.16;;;30.45;22.17
27805;BME280;15183;51.350;11.102;2023-05-28T12:17:41;100359.59;;;30.39;21.92
27805;BME280;15183;51.350;11.102;2023-05-28T12:22:43;100355.97;;;30.35;21.95
27805;BME280;15183;51.350;11.102;2023-05-28T12:25:10;100343.59;;;30.25;22.01
27805;BME280;15183;51.350;11.102;2023-05-28T12:27:37;100352.50;;;30.22;21.99
27805;BME280;15183;51.350;11.102;2023-05-28T12:30:05;100354.91;;;30.11;22.03
27805;BME280;15183;51.350;11.102;2023-05-28T12:32:34;100346.97;;;29.94;22.25
27805;BME280;15183;51.350;11.102;2023-05-28T12:35:00;100343.91;;;29.83;22.45
27805;BME280;15183;51.350;11.102;2023-05-28T12:37:27;100336.97;;;29.73;22.40
27805;BME280;15183;51.350;11.102;2023-05-28T12:39:53;100358.25;;;29.80;22.15
27805;BME280;15183;51.350;11.102;2023-05-28T12:42:21;100351.09;;;29.75;22.40
27805;BME280;15183;51.350;11.102;2023-05-28T12:44:47;100347.09;;;29.72;22.29
27805;BME280;15183;51.350;11.102;2023-05-28T12:47:13;100353.25;;;29.69;22.20
27805;BME280;15183;51.350;11.102;2023-05-28T12:49:40;100349.28;;;29.67;22.73